Aviation Digital Data Service (ADDS)

Output produced by TAFs form (0014 UTC 25 November 2017)
found at http://www.aviationweather.gov/adds/tafs/
 
METAR text: ZYTL 250000Z 24003MPS 9999 SCT033 07/M03 Q1019 NOSIG
Conditions at: ZYTL (DALIAN/DAIREN/LU, CN) observed 0000 UTC 25 November 2017
Temperature: 7.0°C (45°F)
Dewpoint: -3.0°C (27°F) [RH = 49%]
Pressure (altimeter): 30.09 inches Hg (1019.0 mb)
Winds: from the WSW (240 degrees) at 7 MPH (6 knots; 3.1 m/s)
Visibility: 6 or more miles (10+ km)
Ceiling: at least 12,000 feet AGL
Clouds: scattered clouds at 3300 feet AGL
Weather: no significant weather observed at this time

Forecast for: ZYTL (DALIAN/DAIREN/LU, CN)
Text: TAF ZYTL 241905Z 2500/2524 24004G10MPS 6000 SCT033 TX05/2506Z TNM02/21Z
Forecast period: 0000 UTC 25 November 2017 to 0000 UTC 26 November 2017
Forecast type: FROM: standard forecast or significant change
Winds: from the WSW (240 degrees) at 9 MPH (8 knots; 4.2 m/s)
gusting to 22 MPH (19 knots; 9.9 m/s)
Visibility: 4 miles (6 km)
Clouds: scattered clouds at 3300 feet AGL
Temperature: minimum -2.0°C (28°F) expected at 2100 UTC
Weather: no significant weather forecast for this period